Time;durP1;ratioP1;P1;durP2;ratioP2;P2;SDS_P1;SDS_P2;PMS_P1;PMS_P2;Temp;Humidity;BMP_temperature;BMP_pressure;BME280_temperature;BME280_humidity;BME280_pressure;Samples;Min_cycle;Max_cycle;Signal;HPM_P1;HPM_P2
2022/01/14 00:00:50;;;;;;;142.20;24.40;;;2.40;99.90;;;;;;5113125;27;20204;-54
2022/01/14 00:03:19;;;;;;;341.97;29.73;;;2.50;99.90;;;;;;5112883;28;20231;-56
2022/01/14 00:05:47;;;;;;;198.30;24.30;;;2.50;99.90;;;;;;5112683;28;20233;-55
2022/01/14 00:08:18;;;;;;;130.97;21.60;;;2.40;99.90;;;;;;5096406;28;20200;-55
2022/01/14 00:10:49;;;;;;;197.73;27.20;;;2.40;99.90;;;;;;5119203;27;20248;-56
2022/01/14 00:13:40;;;;;;;291.40;30.37;;;2.50;99.90;;;;;;5128609;27;20253;-55
2022/01/14 00:16:06;;;;;;;249.47;26.13;;;2.50;99.90;;;;;;5112353;28;20246;-56
2022/01/14 00:18:34;;;;;;;141.43;22.97;;;2.40;99.90;;;;;;5111681;28;20265;-54
2022/01/14 00:21:03;;;;;;;254.23;29.00;;;2.40;99.90;;;;;;5112857;28;20209;-55
2022/01/14 00:23:38;;;;;;;171.37;25.20;;;2.40;99.90;;;;;;5122356;27;20298;-56
2022/01/14 00:31:43;;;;;;;148.80;22.70;;;2.40;99.90;;;;;;5133006;27;20611;-57
2022/01/14 00:34:12;;;;;;;168.40;25.13;;;2.40;99.90;;;;;;5132521;27;20213;-55
2022/01/14 00:36:42;;;;;;;198.47;23.67;;;2.40;99.90;;;;;;5114646;27;20207;-55
2022/01/14 00:39:12;;;;;;;350.93;33.73;;;2.50;99.90;;;;;;5110498;28;20281;-55
2022/01/14 00:41:41;;;;;;;121.03;21.67;;;2.50;99.90;;;;;;5112399;28;20249;-54
2022/01/14 00:44:12;;;;;;;79.47;19.27;;;2.50;99.90;;;;;;5111698;28;20281;-56
2022/01/14 00:46:41;;;;;;;99.83;19.47;;;2.50;99.90;;;;;;5112217;28;20216;-55
2022/01/14 00:49:09;;;;;;;136.80;21.07;;;2.50;99.90;;;;;;5111249;28;20219;-55
2022/01/14 00:51:38;;;;;;;149.40;21.57;;;2.50;99.90;;;;;;5111515;28;20208;-55
2022/01/14 00:54:07;;;;;;;226.23;27.20;;;2.50;99.90;;;;;;5129030;27;20259;-56
2022/01/14 00:56:47;;;;;;;234.93;26.30;;;2.40;99.90;;;;;;5112146;27;20262;-54
2022/01/14 00:59:16;;;;;;;192.67;24.73;;;2.40;99.90;;;;;;5091240;28;20247;-54
2022/01/14 01:01:48;;;;;;;167.03;22.90;;;2.30;99.90;;;;;;5090640;28;20215;-54
2022/01/14 01:04:18;;;;;;;116.60;20.30;;;2.40;99.90;;;;;;5104240;28;20234;-55
2022/01/14 01:06:48;;;;;;;127.00;20.87;;;2.40;99.90;;;;;;5111219;28;20242;-55
2022/01/14 01:09:17;;;;;;;160.87;21.47;;;2.50;99.90;;;;;;5112325;28;20293;-55
2022/01/14 01:11:51;;;;;;;212.83;24.77;;;2.50;99.90;;;;;;5131887;27;20203;-55
2022/01/14 01:14:26;;;;;;;138.80;22.17;;;2.50;99.90;;;;;;5126450;27;20234;-55
2022/01/14 01:16:54;;;;;;;378.03;30.70;;;2.60;99.90;;;;;;5111846;28;20199;-55
2022/01/14 01:19:22;;;;;;;274.90;27.83;;;2.50;99.90;;;;;;5128345;27;20284;-54
2022/01/14 01:21:50;;;;;;;235.83;26.43;;;2.60;99.90;;;;;;5131602;27;20671;-55
2022/01/14 01:24:18;;;;;;;264.47;26.33;;;2.60;99.90;;;;;;5131617;28;20213;-55
2022/01/14 01:26:50;;;;;;;202.67;24.50;;;2.60;99.90;;;;;;5132086;28;20210;-56
2022/01/14 01:29:42;;;;;;;336.03;34.70;;;2.60;99.90;;;;;;5131270;28;20703;-56
2022/01/14 01:32:10;;;;;;;225.57;27.57;;;2.50;99.90;;;;;;5131987;28;20253;-56
2022/01/14 01:34:38;;;;;;;103.23;21.43;;;2.50;99.90;;;;;;5128297;28;20203;-56
2022/01/14 01:37:07;;;;;;;270.10;29.13;;;2.50;99.90;;;;;;5110888;28;20200;-55
2022/01/14 01:39:36;;;;;;;152.50;25.23;;;2.50;99.90;;;;;;5111192;28;20300;-56
2022/01/14 01:42:08;;;;;;;184.03;25.43;;;2.50;99.90;;;;;;5111302;28;20210;-55
2022/01/14 01:44:39;;;;;;;108.10;22.00;;;2.60;99.90;;;;;;5110952;28;20262;-55
2022/01/14 01:47:08;;;;;;;119.50;22.73;;;2.50;99.90;;;;;;5111330;28;20639;-56
2022/01/14 01:49:37;;;;;;;117.80;22.57;;;2.50;99.90;;;;;;5109984;28;20221;-55
2022/01/14 01:52:07;;;;;;;137.67;21.93;;;2.50;99.90;;;;;;5111304;28;20199;-55
2022/01/14 01:54:36;;;;;;;182.90;25.67;;;2.60;99.90;;;;;;5131614;28;20256;-54
2022/01/14 01:57:06;;;;;;;100.03;22.90;;;2.50;99.90;;;;;;5131652;28;20203;-56
2022/01/14 01:59:34;;;;;;;260.50;28.87;;;2.50;99.90;;;;;;5109093;28;20232;-56
2022/01/14 02:02:04;;;;;;;216.03;26.20;;;2.50;99.90;;;;;;5090272;28;20223;-54
2022/01/14 02:04:32;;;;;;;222.13;28.83;;;2.60;99.90;;;;;;5100693;28;20208;-56
2022/01/14 02:07:10;;;;;;;256.23;29.50;;;2.60;99.90;;;;;;5110840;28;20293;-56
2022/01/14 02:09:38;;;;;;;263.43;31.73;;;2.60;99.90;;;;;;5114644;28;20220;-55
2022/01/14 02:12:11;;;;;;;79.33;22.27;;;2.60;99.90;;;;;;5112473;28;20688;-55
2022/01/14 02:14:56;;;;;;;128.00;24.10;;;2.50;99.90;;;;;;5111007;28;20218;-54
2022/01/14 02:17:35;;;;;;;89.10;21.53;;;2.50;99.90;;;;;;5111064;28;20248;-57
2022/01/14 02:22:56;;;;;;;87.70;22.03;;;2.40;99.90;;;;;;5133414;27;20217;-56
2022/01/14 02:25:29;;;;;;;88.87;23.23;;;2.40;99.90;;;;;;5135555;27;20255;-55
2022/01/14 02:28:00;;;;;;;185.33;28.40;;;2.50;99.90;;;;;;5133382;27;20233;-57
2022/01/14 02:30:29;;;;;;;103.17;24.17;;;2.50;99.90;;;;;;5114697;28;20200;-56
2022/01/14 02:32:58;;;;;;;202.60;27.40;;;2.50;99.90;;;;;;5093766;28;20203;-55
2022/01/14 02:35:28;;;;;;;106.50;23.40;;;2.50;99.90;;;;;;5101347;28;20192;-56
2022/01/14 02:37:56;;;;;;;69.83;21.47;;;2.50;99.90;;;;;;5114646;28;20233;-55
2022/01/14 02:40:25;;;;;;;131.53;24.37;;;2.40;99.90;;;;;;5113769;28;20284;-55
2022/01/14 02:42:56;;;;;;;69.40;22.00;;;2.40;99.90;;;;;;5113980;28;20202;-55
2022/01/14 02:45:27;;;;;;;178.03;28.30;;;2.40;99.90;;;;;;5113821;28;20210;-55
2022/01/14 02:47:55;;;;;;;203.50;28.43;;;2.40;99.90;;;;;;5114546;28;20246;-55
2022/01/14 02:50:25;;;;;;;167.03;27.43;;;2.40;99.90;;;;;;5112657;28;20806;-55
2022/01/14 02:52:58;;;;;;;343.43;35.30;;;2.40;99.90;;;;;;5120532;27;20199;-57
2022/01/14 02:55:30;;;;;;;397.60;40.13;;;2.40;99.90;;;;;;5132007;27;20237;-55
2022/01/14 02:57:59;;;;;;;232.77;28.10;;;2.40;99.90;;;;;;5113389;28;20635;-56
2022/01/14 03:00:30;;;;;;;183.90;24.57;;;2.40;99.90;;;;;;5103953;28;20212;-57
2022/01/14 03:03:00;;;;;;;120.73;23.30;;;2.30;99.90;;;;;;5114221;28;20308;-55
2022/01/14 03:05:30;;;;;;;334.23;33.97;;;2.30;99.90;;;;;;5114061;28;20261;-56
2022/01/14 03:08:00;;;;;;;116.60;22.40;;;2.30;99.90;;;;;;5113456;28;20276;-55
2022/01/14 03:10:29;;;;;;;180.50;24.73;;;2.30;99.90;;;;;;5124780;27;20253;-56
2022/01/14 03:12:57;;;;;;;416.00;36.90;;;2.30;99.90;;;;;;5132672;27;20209;-55
2022/01/14 03:15:25;;;;;;;115.97;22.80;;;2.30;99.90;;;;;;5113358;28;20853;-55
2022/01/14 03:17:53;;;;;;;185.30;24.17;;;2.30;99.90;;;;;;5117534;27;20201;-57
2022/01/14 03:20:44;;;;;;;110.30;21.40;;;2.30;99.90;;;;;;5134197;27;20262;-56
2022/01/14 03:23:14;;;;;;;146.30;23.20;;;2.20;99.90;;;;;;5117117;27;20314;-56
2022/01/14 03:25:49;;;;;;;130.70;24.17;;;2.20;99.90;;;;;;5114187;28;20234;-55
2022/01/14 03:28:19;;;;;;;331.77;31.20;;;2.30;99.90;;;;;;5113236;28;20207;-54
2022/01/14 03:30:47;;;;;;;281.70;29.27;;;2.30;99.90;;;;;;5113557;28;20198;-55
2022/01/14 03:33:15;;;;;;;154.63;22.90;;;2.30;99.90;;;;;;5113007;28;20675;-56
2022/01/14 03:35:43;;;;;;;207.10;25.33;;;2.30;99.90;;;;;;5113062;28;20678;-55
2022/01/14 03:38:13;;;;;;;260.67;28.37;;;2.20;99.90;;;;;;5112743;28;20214;-56
2022/01/14 03:40:41;;;;;;;302.53;32.00;;;2.20;99.90;;;;;;5113036;28;20768;-55
2022/01/14 03:43:10;;;;;;;125.00;24.13;;;2.30;99.90;;;;;;5112645;28;20200;-55
2022/01/14 03:45:39;;;;;;;199.93;24.80;;;2.30;99.90;;;;;;5112919;28;20211;-55
2022/01/14 03:48:08;;;;;;;137.80;21.27;;;2.30;99.90;;;;;;5112373;28;20252;-56
2022/01/14 03:50:37;;;;;;;204.83;25.80;;;2.30;99.90;;;;;;5092307;28;20686;-55
2022/01/14 03:53:05;;;;;;;247.03;27.53;;;2.30;99.90;;;;;;5109613;27;20600;-56
2022/01/14 03:55:38;;;;;;;125.83;23.20;;;2.30;99.90;;;;;;5112984;28;20257;-55
2022/01/14 03:58:07;;;;;;;312.87;31.03;;;2.30;99.90;;;;;;5112425;28;20210;-56
2022/01/14 04:00:35;;;;;;;487.93;38.23;;;2.30;99.90;;;;;;5095137;28;20217;-55
2022/01/14 04:03:04;;;;;;;247.37;27.77;;;2.30;99.90;;;;;;5097628;28;20253;-55
2022/01/14 04:05:32;;;;;;;316.73;31.60;;;2.30;99.90;;;;;;5113050;28;20229;-55
2022/01/14 04:08:01;;;;;;;228.00;27.80;;;2.30;99.90;;;;;;5112042;28;20693;-56
2022/01/14 04:10:29;;;;;;;185.73;24.57;;;2.20;99.90;;;;;;5123147;27;20213;-55
2022/01/14 04:13:02;;;;;;;184.07;22.33;;;2.20;99.90;;;;;;5119456;27;20239;-55
2022/01/14 04:15:42;;;;;;;81.37;21.80;;;2.30;99.90;;;;;;5113030;28;20616;-55
2022/01/14 04:18:13;;;;;;;502.50;41.57;;;2.30;99.90;;;;;;5119169;27;20226;-54
2022/01/14 04:20:42;;;;;;;310.30;31.43;;;2.30;99.90;;;;;;5133265;27;20264;-57
2022/01/14 04:23:12;;;;;;;227.93;28.63;;;2.30;99.90;;;;;;5131228;27;20211;-56
2022/01/14 04:25:42;;;;;;;212.17;26.73;;;2.30;99.90;;;;;;5112712;28;20203;-56
2022/01/14 04:28:12;;;;;;;407.77;34.83;;;2.30;99.90;;;;;;5112412;28;20285;-56
2022/01/14 04:30:42;;;;;;;254.53;29.20;;;2.20;99.90;;;;;;5112496;28;20198;-57
2022/01/14 04:33:10;;;;;;;358.50;29.83;;;2.30;99.90;;;;;;5112643;28;20211;-56
2022/01/14 04:35:38;;;;;;;356.07;30.70;;;2.20;99.90;;;;;;5112038;28;20265;-56
2022/01/14 04:38:06;;;;;;;227.93;26.50;;;2.30;99.90;;;;;;5111906;28;20679;-55
2022/01/14 04:40:34;;;;;;;226.20;26.43;;;2.20;99.90;;;;;;5112292;28;20381;-55
2022/01/14 04:43:03;;;;;;;224.40;25.17;;;2.20;99.90;;;;;;5111996;28;20253;-55
2022/01/14 04:45:43;;;;;;;210.90;24.23;;;2.20;99.90;;;;;;5111406;28;20210;-56
2022/01/14 04:48:12;;;;;;;287.83;26.53;;;2.20;99.90;;;;;;5116453;27;20642;-55
2022/01/14 04:50:40;;;;;;;270.63;26.83;;;2.10;99.90;;;;;;5128683;27;20207;-55
2022/01/14 04:53:12;;;;;;;237.33;26.07;;;2.10;99.90;;;;;;5111878;27;20639;-55
2022/01/14 04:55:41;;;;;;;358.00;30.63;;;2.30;99.90;;;;;;5111973;28;20209;-55
2022/01/14 04:58:09;;;;;;;244.73;25.53;;;2.30;99.90;;;;;;5111542;28;20576;-56
2022/01/14 05:00:39;;;;;;;191.43;24.37;;;2.30;99.90;;;;;;5110667;28;20203;-55
2022/01/14 05:03:08;;;;;;;516.17;39.07;;;2.30;99.90;;;;;;5111669;28;20577;-56
2022/01/14 05:05:40;;;;;;;354.90;30.27;;;2.20;99.90;;;;;;5112252;28;20219;-56
2022/01/14 05:08:11;;;;;;;314.53;29.57;;;2.10;99.90;;;;;;5110562;28;20246;-55
2022/01/14 05:11:00;;;;;;;328.60;31.07;;;2.10;99.90;;;;;;5124416;27;20191;-56
2022/01/14 05:13:28;;;;;;;157.33;23.80;;;2.20;99.90;;;;;;5131630;27;20235;-55
2022/01/14 05:15:58;;;;;;;231.67;25.77;;;2.20;99.90;;;;;;5132484;27;20202;-55
2022/01/14 05:18:26;;;;;;;335.40;30.10;;;2.10;99.90;;;;;;5123102;27;20208;-56
2022/01/14 05:20:54;;;;;;;147.63;24.77;;;2.10;99.90;;;;;;5111487;28;20220;-55
2022/01/14 05:23:24;;;;;;;381.13;34.63;;;2.20;99.90;;;;;;5120602;27;20233;-56
2022/01/14 05:25:52;;;;;;;333.13;32.77;;;2.20;99.90;;;;;;5132247;27;20202;-55
2022/01/14 05:28:20;;;;;;;299.20;27.60;;;2.10;99.90;;;;;;5131806;28;20206;-56
2022/01/14 05:30:48;;;;;;;332.73;29.67;;;2.20;99.90;;;;;;5131836;28;20254;-55
2022/01/14 05:33:18;;;;;;;428.60;34.23;;;2.10;99.90;;;;;;5132245;28;20210;-55
2022/01/14 05:35:46;;;;;;;212.50;26.80;;;2.20;99.90;;;;;;5121588;28;20581;-56
2022/01/14 05:38:14;;;;;;;182.07;26.03;;;2.20;99.90;;;;;;5110709;28;20668;-55
2022/01/14 05:40:42;;;;;;;378.73;33.17;;;2.10;99.90;;;;;;5094211;28;20201;-55
2022/01/14 05:43:10;;;;;;;162.63;23.87;;;2.00;99.90;;;;;;5090408;28;20258;-57
2022/01/14 05:45:38;;;;;;;447.77;36.87;;;2.10;99.90;;;;;;5105277;28;20208;-55
2022/01/14 05:48:06;;;;;;;231.33;26.33;;;2.20;99.90;;;;;;5111172;28;20228;-57
2022/01/14 05:50:36;;;;;;;345.73;33.17;;;2.20;99.90;;;;;;5111235;28;20217;-55
2022/01/14 05:53:06;;;;;;;354.17;32.43;;;2.10;99.90;;;;;;5119223;28;20265;-60
2022/01/14 05:55:34;;;;;;;98.93;22.07;;;2.10;99.90;;;;;;5126159;28;20242;-55
2022/01/14 05:58:03;;;;;;;129.00;20.33;;;2.10;99.90;;;;;;5113719;28;20208;-55
2022/01/14 06:00:31;;;;;;;290.43;26.23;;;2.20;99.90;;;;;;5114756;28;20255;-57
2022/01/14 06:02:59;;;;;;;180.43;24.97;;;2.20;99.90;;;;;;5114963;28;20223;-56
2022/01/14 06:05:32;;;;;;;129.23;22.80;;;2.20;99.90;;;;;;5115185;28;20244;-55
2022/01/14 06:08:01;;;;;;;278.07;27.93;;;2.20;99.90;;;;;;5113502;28;20238;-56
2022/01/14 06:10:29;;;;;;;345.50;30.60;;;2.20;99.90;;;;;;5125954;27;20260;-56
2022/01/14 06:12:57;;;;;;;145.50;23.27;;;2.00;99.90;;;;;;5135283;27;20247;-55
2022/01/14 06:15:25;;;;;;;157.97;22.43;;;2.00;99.90;;;;;;5135677;27;20237;-56
2022/01/14 06:17:54;;;;;;;121.53;21.73;;;2.00;99.90;;;;;;5119781;27;20247;-56
2022/01/14 06:20:23;;;;;;;223.93;25.57;;;2.10;99.90;;;;;;5132113;27;20580;-54
2022/01/14 06:22:51;;;;;;;211.77;25.63;;;2.10;99.90;;;;;;5119400;27;20253;-56
2022/01/14 06:25:20;;;;;;;119.23;20.53;;;2.20;99.90;;;;;;5135283;27;20200;-56
2022/01/14 06:27:49;;;;;;;130.43;23.17;;;2.10;99.90;;;;;;5135059;27;20736;-57
2022/01/14 06:30:21;;;;;;;117.87;21.27;;;2.00;99.90;;;;;;5114371;28;20302;-55
2022/01/14 06:32:52;;;;;;;262.73;26.10;;;2.00;99.90;;;;;;5114511;28;20236;-56
2022/01/14 06:35:20;;;;;;;147.13;19.90;;;2.00;99.90;;;;;;5114507;28;20678;-54
2022/01/14 06:37:49;;;;;;;191.97;22.93;;;2.10;99.90;;;;;;5113782;28;20226;-57
2022/01/14 06:40:17;;;;;;;110.37;21.90;;;2.10;99.90;;;;;;5114945;27;20254;-56
2022/01/14 06:42:51;;;;;;;246.37;26.30;;;2.20;99.90;;;;;;5120125;27;20218;-54
2022/01/14 06:45:19;;;;;;;176.30;23.13;;;2.20;99.90;;;;;;5113905;28;20206;-55
2022/01/14 06:47:48;;;;;;;223.33;26.43;;;2.20;99.90;;;;;;5114542;28;20425;-55
2022/01/14 06:50:17;;;;;;;289.13;28.57;;;2.20;99.90;;;;;;5114358;28;20250;-54
2022/01/14 06:52:45;;;;;;;188.97;25.67;;;2.10;99.90;;;;;;5119632;27;20210;-54
2022/01/14 06:55:13;;;;;;;243.93;28.50;;;2.20;99.90;;;;;;5135035;27;20205;-56
2022/01/14 06:57:41;;;;;;;283.37;28.37;;;2.20;99.90;;;;;;5120349;27;20667;-56
2022/01/14 07:00:13;;;;;;;241.77;25.47;;;2.20;99.90;;;;;;5113576;28;20234;-56
2022/01/14 07:02:42;;;;;;;271.93;26.50;;;2.00;99.90;;;;;;5114109;28;20211;-55
2022/01/14 07:05:11;;;;;;;191.57;23.80;;;2.00;99.90;;;;;;5114174;28;20286;-55
2022/01/14 07:07:40;;;;;;;320.43;29.90;;;2.00;99.90;;;;;;5113698;28;20731;-55
2022/01/14 07:10:13;;;;;;;114.37;22.00;;;2.10;99.90;;;;;;5122683;27;20229;-56
2022/01/14 07:12:43;;;;;;;357.33;33.93;;;2.10;99.90;;;;;;5127113;27;20196;-55
2022/01/14 07:15:16;;;;;;;189.70;26.43;;;1.90;99.90;;;;;;5129262;27;20236;-55
2022/01/14 07:17:45;;;;;;;179.00;27.67;;;2.00;99.90;;;;;;5132248;27;20197;-55
2022/01/14 07:20:15;;;;;;;138.87;26.30;;;2.10;99.90;;;;;;5113658;28;20278;-56
2022/01/14 07:22:45;;;;;;;154.83;27.80;;;2.10;99.90;;;;;;5117196;27;20234;-55
2022/01/14 07:25:18;;;;;;;154.13;24.80;;;2.00;99.90;;;;;;5134161;27;20197;-55
2022/01/14 07:27:46;;;;;;;176.60;25.10;;;2.00;99.90;;;;;;5134596;27;20347;-55
2022/01/14 07:30:16;;;;;;;211.57;26.13;;;2.00;99.90;;;;;;5128652;27;20272;-56
2022/01/14 07:32:45;;;;;;;116.97;22.17;;;2.00;99.90;;;;;;5113657;28;20256;-56
2022/01/14 07:35:14;;;;;;;150.00;24.60;;;2.00;99.90;;;;;;5113134;28;20204;-55
2022/01/14 07:37:42;;;;;;;159.00;23.20;;;2.00;99.90;;;;;;5113262;28;20217;-56
2022/01/14 07:40:11;;;;;;;120.33;21.23;;;1.90;99.90;;;;;;5100690;28;20273;-55
2022/01/14 07:42:39;;;;;;;266.03;29.03;;;1.90;99.90;;;;;;5107439;28;20282;-56
2022/01/14 07:45:08;;;;;;;299.90;28.63;;;2.10;99.90;;;;;;5112990;28;20678;-55
2022/01/14 07:47:38;;;;;;;189.33;25.33;;;2.10;99.90;;;;;;5113002;28;20249;-56
2022/01/14 07:50:07;;;;;;;272.53;30.60;;;2.10;99.90;;;;;;5113015;28;20637;-56
2022/01/14 07:52:35;;;;;;;298.67;31.17;;;2.10;99.90;;;;;;5125368;27;20210;-55
2022/01/14 07:55:03;;;;;;;382.53;36.47;;;2.10;99.90;;;;;;5104021;27;20208;-55
2022/01/14 07:57:31;;;;;;;182.73;25.23;;;2.00;99.90;;;;;;5109195;28;20263;-56
2022/01/14 07:59:59;;;;;;;77.13;23.33;;;2.00;99.90;;;;;;5111961;28;20223;-55
2022/01/14 08:02:27;;;;;;;149.20;31.87;;;2.20;99.90;;;;;;5112398;28;20249;-56
2022/01/14 08:04:57;;;;;;;131.13;30.87;;;2.20;99.90;;;;;;5112890;28;20310;-56
2022/01/14 08:07:28;;;;;;;240.53;32.27;;;2.20;99.90;;;;;;5132833;27;20203;-56
2022/01/14 08:09:56;;;;;;;132.77;25.87;;;2.20;99.90;;;;;;5117412;27;20271;-55
2022/01/14 08:12:24;;;;;;;139.60;25.23;;;2.20;99.90;;;;;;5133284;27;20199;-56
2022/01/14 08:14:52;;;;;;;200.73;28.23;;;2.20;99.90;;;;;;5132902;27;20203;-56
2022/01/14 08:17:21;;;;;;;101.73;20.20;;;2.20;99.90;;;;;;5133420;27;20255;-56
2022/01/14 08:19:49;;;;;;;92.50;22.17;;;2.10;99.90;;;;;;5105345;27;20241;-57
2022/01/14 08:22:18;;;;;;;170.93;24.93;;;2.20;99.90;;;;;;5132787;27;20202;-56
2022/01/14 08:24:46;;;;;;;146.63;26.50;;;2.20;99.90;;;;;;5132770;27;20248;-56
2022/01/14 08:27:15;;;;;;;217.87;28.37;;;2.30;99.90;;;;;;5121380;27;20210;-55
2022/01/14 08:29:44;;;;;;;117.87;23.23;;;2.30;99.90;;;;;;5097427;28;20710;-55
2022/01/14 08:32:12;;;;;;;369.00;34.10;;;2.30;99.90;;;;;;5091736;28;20277;-56
2022/01/14 08:34:41;;;;;;;229.73;30.33;;;2.30;99.90;;;;;;5125543;27;20254;-56
2022/01/14 08:37:09;;;;;;;162.93;29.00;;;2.30;99.90;;;;;;5111828;28;20207;-56
2022/01/14 08:39:39;;;;;;;172.83;28.27;;;2.20;99.90;;;;;;5111329;28;20228;-56
2022/01/14 08:42:09;;;;;;;190.07;30.37;;;2.20;99.90;;;;;;5111749;28;20254;-55
2022/01/14 08:44:37;;;;;;;168.60;26.00;;;2.30;99.90;;;;;;5112106;28;20293;-55
2022/01/14 08:47:09;;;;;;;144.10;31.27;;;2.30;99.90;;;;;;5112164;28;20203;-55
2022/01/14 08:49:38;;;;;;;114.30;34.37;;;2.30;99.90;;;;;;5111342;28;20220;-55
2022/01/14 08:52:07;;;;;;;120.57;33.30;;;2.30;99.90;;;;;;5112002;28;20210;-55
2022/01/14 08:54:35;;;;;;;123.93;27.70;;;2.30;99.90;;;;;;5132084;27;20579;-55
2022/01/14 08:57:06;;;;;;;171.30;28.30;;;2.30;99.90;;;;;;5132656;27;20202;-56
2022/01/14 08:59:34;;;;;;;82.47;23.83;;;2.20;99.90;;;;;;5107498;27;20227;-56
2022/01/14 09:02:03;;;;;;;176.87;27.33;;;2.20;99.90;;;;;;5099169;28;20197;-56
2022/01/14 09:04:31;;;;;;;109.90;24.10;;;2.20;99.90;;;;;;5108612;28;20223;-55
2022/01/14 09:06:59;;;;;;;135.17;24.17;;;2.30;99.90;;;;;;5102675;28;20208;-55
2022/01/14 09:09:28;;;;;;;87.80;24.77;;;2.30;99.90;;;;;;5103204;28;20224;-55
2022/01/14 09:11:56;;;;;;;145.03;30.60;;;2.30;99.90;;;;;;5132066;27;20667;-56
2022/01/14 09:14:26;;;;;;;140.13;26.10;;;2.40;99.90;;;;;;5126084;27;22359;-55
2022/01/14 09:16:56;;;;;;;164.00;27.63;;;2.40;99.90;;;;;;5095339;28;20212;-55
2022/01/14 09:19:24;;;;;;;139.43;27.93;;;2.40;99.90;;;;;;5113934;27;20286;-56
2022/01/14 09:21:52;;;;;;;159.77;30.80;;;2.40;99.90;;;;;;5124252;27;21025;-56
2022/01/14 09:24:41;;;;;;;103.87;24.23;;;2.40;99.90;;;;;;5090730;28;20226;-56
2022/01/14 09:27:09;;;;;;;275.87;33.13;;;2.40;99.90;;;;;;5091019;28;20624;-56
2022/01/14 09:29:39;;;;;;;100.57;23.20;;;2.50;99.90;;;;;;5095997;28;20250;-56
2022/01/14 09:32:08;;;;;;;84.97;25.30;;;2.60;99.90;;;;;;5116726;28;20234;-56
2022/01/14 09:34:38;;;;;;;116.97;24.83;;;2.60;99.90;;;;;;5126066;27;20202;-56
2022/01/14 09:37:06;;;;;;;72.33;21.87;;;2.60;99.90;;;;;;5118413;28;20242;-54
2022/01/14 09:39:36;;;;;;;55.27;21.10;;;2.60;99.90;;;;;;5117390;28;20225;-55
2022/01/14 09:42:06;;;;;;;67.70;21.80;;;2.70;99.90;;;;;;5118104;28;20680;-56
2022/01/14 09:44:34;;;;;;;39.33;21.10;;;2.70;99.90;;;;;;5117877;28;20272;-56
2022/01/14 09:47:04;;;;;;;47.93;20.13;;;2.80;99.90;;;;;;5118309;28;20225;-55
2022/01/14 09:49:32;;;;;;;52.03;21.70;;;2.90;99.90;;;;;;5099913;28;20274;-57
2022/01/14 09:52:01;;;;;;;104.77;24.50;;;2.90;99.90;;;;;;5098015;28;20575;-56
2022/01/14 09:54:29;;;;;;;78.90;24.03;;;2.90;99.90;;;;;;5119506;27;20242;-56
2022/01/14 09:56:57;;;;;;;72.37;21.33;;;3.00;99.90;;;;;;5118571;28;20253;-56
2022/01/14 09:59:25;;;;;;;143.63;28.00;;;3.00;99.90;;;;;;5109454;28;20268;-56
2022/01/14 10:01:54;;;;;;;96.50;25.17;;;2.90;99.90;;;;;;5109901;27;20264;-55
2022/01/14 10:04:24;;;;;;;91.30;24.47;;;2.90;99.90;;;;;;5117854;28;20313;-56
2022/01/14 10:06:54;;;;;;;100.87;23.63;;;3.00;99.90;;;;;;5117475;28;20201;-56
2022/01/14 10:09:25;;;;;;;58.67;24.57;;;3.00;99.90;;;;;;5118269;27;20614;-56
2022/01/14 10:12:02;;;;;;;62.67;23.07;;;3.00;99.90;;;;;;5138618;27;20202;-57
2022/01/14 10:14:31;;;;;;;89.23;25.00;;;2.90;99.90;;;;;;5138553;27;20186;-57
2022/01/14 10:17:02;;;;;;;95.53;25.90;;;2.90;99.90;;;;;;5137449;27;20203;-55
2022/01/14 10:19:34;;;;;;;123.30;28.53;;;2.90;99.90;;;;;;5119515;27;20281;-55
2022/01/14 10:22:17;;;;;;;188.03;31.83;;;2.90;99.90;;;;;;5117714;28;20203;-55
2022/01/14 10:24:55;;;;;;;103.03;25.27;;;2.90;99.90;;;;;;5119114;28;20285;-55
2022/01/14 10:27:36;;;;;;;141.10;27.20;;;3.00;99.90;;;;;;5136094;27;20212;-54
2022/01/14 10:30:12;;;;;;;96.87;26.20;;;3.10;99.90;;;;;;5121946;27;20219;-56
2022/01/14 10:32:42;;;;;;;152.73;28.53;;;3.20;99.90;;;;;;5096898;28;20207;-54
2022/01/14 10:35:13;;;;;;;89.33;23.37;;;3.20;99.90;;;;;;5098833;28;20722;-56
2022/01/14 10:37:44;;;;;;;111.70;22.90;;;3.20;99.90;;;;;;5109761;28;20208;-56
2022/01/14 10:40:15;;;;;;;81.30;22.80;;;3.20;99.90;;;;;;5117021;28;20249;-55
2022/01/14 10:42:45;;;;;;;56.60;21.40;;;3.10;99.90;;;;;;5114945;28;20205;-55
2022/01/14 10:45:19;;;;;;;37.27;20.17;;;3.10;99.90;;;;;;5113839;28;20709;-55
2022/01/14 10:47:56;;;;;;;34.80;19.17;;;3.20;99.90;;;;;;5117404;27;20267;-57
2022/01/14 10:50:38;;;;;;;34.23;21.27;;;3.20;99.90;;;;;;5133745;27;20772;-55
2022/01/14 10:53:10;;;;;;;33.93;19.63;;;3.00;99.90;;;;;;5128486;27;20617;-56
2022/01/14 10:55:46;;;;;;;30.27;18.07;;;3.10;99.90;;;;;;5134475;27;20199;-55
2022/01/14 10:58:16;;;;;;;31.03;18.03;;;3.20;99.90;;;;;;5120919;27;20736;-57
2022/01/14 11:00:48;;;;;;;31.17;18.13;;;3.20;99.90;;;;;;5094594;28;20205;-55
2022/01/14 11:03:31;;;;;;;33.87;19.30;;;3.10;99.90;;;;;;5093530;28;20227;-56
2022/01/14 11:06:16;;;;;;;37.83;20.63;;;3.10;99.90;;;;;;5093193;28;20216;-56
2022/01/14 11:08:44;;;;;;;37.67;21.23;;;3.10;99.90;;;;;;5093227;28;20315;-57
2022/01/14 11:11:13;;;;;;;40.43;22.93;;;2.90;99.90;;;;;;5128016;27;20198;-56
2022/01/14 11:13:45;;;;;;;38.60;21.80;;;2.90;99.90;;;;;;5117775;27;20211;-55
2022/01/14 11:16:13;;;;;;;43.90;22.73;;;2.80;99.90;;;;;;5126858;27;20206;-55
2022/01/14 11:18:42;;;;;;;36.00;21.47;;;2.90;99.90;;;;;;5113876;27;20238;-55
2022/01/14 11:23:57;;;;;;;42.90;22.07;;;3.20;99.90;;;;;;5092746;28;20247;-56
2022/01/14 11:26:32;;;;;;;41.63;22.00;;;3.30;99.90;;;;;;5097725;28;20206;-54
2022/01/14 11:29:06;;;;;;;41.13;23.53;;;3.40;99.90;;;;;;5111423;28;20285;-55
2022/01/14 11:31:37;;;;;;;45.37;25.17;;;3.40;99.90;;;;;;5113853;28;20254;-56
2022/01/14 11:34:08;;;;;;;39.23;22.90;;;3.50;99.90;;;;;;5113020;28;20208;-56
2022/01/14 11:36:52;;;;;;;39.73;23.60;;;3.50;99.90;;;;;;5113731;28;20249;-55
2022/01/14 11:39:21;;;;;;;37.43;22.90;;;3.60;99.90;;;;;;5106224;28;20586;-55
2022/01/14 11:41:54;;;;;;;40.20;22.83;;;3.60;99.90;;;;;;5093247;28;20204;-56
2022/01/14 11:44:52;;;;;;;39.50;23.47;;;3.60;99.90;;;;;;5091886;28;20662;-55
2022/01/14 11:47:58;;;;;;;45.93;24.83;;;3.70;99.90;;;;;;5093080;28;20212;-56
2022/01/14 11:50:48;;;;;;;46.93;25.77;;;3.60;99.90;;;;;;5091475;28;20593;-55
2022/01/14 11:53:39;;;;;;;48.00;25.53;;;3.70;99.90;;;;;;5117329;27;20217;-55
2022/01/14 11:56:30;;;;;;;46.93;25.70;;;3.50;99.90;;;;;;5111832;28;20242;-56
2022/01/14 11:59:31;;;;;;;38.17;24.17;;;3.60;99.90;;;;;;5111116;28;20223;-55
2022/01/14 12:01:59;;;;;;;39.40;24.07;;;3.60;99.90;;;;;;5112988;28;20304;-55
2022/01/14 12:05:09;;;;;;;54.30;27.67;;;3.60;99.90;;;;;;5111848;28;20219;-56
2022/01/14 12:08:23;;;;;;;44.53;25.73;;;3.70;99.90;;;;;;5112479;28;20199;-56
2022/01/14 12:11:16;;;;;;;53.23;25.93;;;3.80;99.90;;;;;;5127011;27;20212;-55
2022/01/14 12:13:59;;;;;;;48.70;25.57;;;3.90;99.90;;;;;;5122318;27;20290;-55
2022/01/14 12:19:24;;;;;;;70.53;27.80;;;4.10;99.90;;;;;;5114273;27;20638;-55
2022/01/14 12:22:03;;;;;;;59.63;27.80;;;4.00;99.90;;;;;;5113020;28;20188;-57
2022/01/14 12:24:39;;;;;;;56.20;27.07;;;4.00;99.90;;;;;;5111713;28;20217;-57
2022/01/14 12:27:49;;;;;;;65.73;27.93;;;4.10;99.90;;;;;;5112665;28;20230;-56
2022/01/14 12:30:29;;;;;;;49.53;25.30;;;4.00;99.90;;;;;;5111248;28;20228;-55
2022/01/14 12:32:57;;;;;;;70.07;27.43;;;4.00;99.90;;;;;;5107380;28;20206;-55
2022/01/14 12:35:32;;;;;;;142.00;31.90;;;4.10;99.90;;;;;;5098266;28;20253;-56
2022/01/14 12:38:01;;;;;;;83.77;25.70;;;3.90;99.90;;;;;;5112310;28;20211;-54
2022/01/14 12:40:36;;;;;;;127.60;27.37;;;4.00;99.90;;;;;;5111637;28;20789;-55
2022/01/14 12:43:06;;;;;;;85.77;26.63;;;4.00;99.90;;;;;;5105351;28;20248;-56
2022/01/14 12:45:41;;;;;;;95.50;27.77;;;4.00;99.90;;;;;;5091699;28;20218;-56
2022/01/14 12:48:31;;;;;;;132.67;28.53;;;3.90;99.90;;;;;;5103066;27;20255;-55
2022/01/14 12:51:10;;;;;;;211.03;35.93;;;3.90;99.90;;;;;;5117760;27;20257;-56
2022/01/14 12:53:54;;;;;;;72.53;27.70;;;3.90;99.90;;;;;;5124863;27;20201;-56
2022/01/14 12:56:24;;;;;;;200.90;32.00;;;3.90;99.90;;;;;;5119145;27;20576;-55
2022/01/14 12:58:58;;;;;;;215.47;35.77;;;3.90;99.90;;;;;;5110634;28;20232;-56
2022/01/14 13:01:38;;;;;;;67.73;27.93;;;4.00;99.90;;;;;;5111666;28;20189;-55
2022/01/14 13:04:10;;;;;;;120.07;29.60;;;4.00;99.90;;;;;;5100154;28;20550;-56